sensor_id;sensor_type;location;lat;lon;timestamp;temperature;humidity
4425;DHT22;2225;53.568;13.266;2023-01-01T00:02:35;18.60;89.20
4425;DHT22;2225;53.568;13.266;2023-01-01T00:05:04;18.60;89.30
4425;DHT22;2225;53.568;13.266;2023-01-01T00:07:32;18.60;88.50
4425;DHT22;2225;53.568;13.266;2023-01-01T00:09:58;18.60;87.50
4425;DHT22;2225;53.568;13.266;2023-01-01T00:12:44;18.60;87.90
4425;DHT22;2225;53.568;13.266;2023-01-01T00:15:11;18.60;87.30
4425;DHT22;2225;53.568;13.266;2023-01-01T00:17:38;18.70;87.30
4425;DHT22;2225;53.568;13.266;2023-01-01T00:20:05;18.70;87.20
4425;DHT22;2225;53.568;13.266;2023-01-01T00:22:33;18.70;86.40
4425;DHT22;2225;53.568;13.266;2023-01-01T00:25:20;18.70;86.60
4425;DHT22;2225;53.568;13.266;2023-01-01T00:27:47;18.70;86.20
4425;DHT22;2225;53.568;13.266;2023-01-01T00:30:14;18.70;85.60
4425;DHT22;2225;53.568;13.266;2023-01-01T00:32:40;18.70;85.40
4425;DHT22;2225;53.568;13.266;2023-01-01T00:35:20;18.70;85.50
4425;DHT22;2225;53.568;13.266;2023-01-01T00:37:47;18.70;84.30
4425;DHT22;2225;53.568;13.266;2023-01-01T00:40:14;18.70;85.20
4425;DHT22;2225;53.568;13.266;2023-01-01T00:42:41;18.60;84.90
4425;DHT22;2225;53.568;13.266;2023-01-01T00:45:08;18.60;85.00
4425;DHT22;2225;53.568;13.266;2023-01-01T00:47:41;18.70;84.80
4425;DHT22;2225;53.568;13.266;2023-01-01T00:50:08;18.60;84.50
4425;DHT22;2225;53.568;13.266;2023-01-01T00:52:34;18.70;85.00
4425;DHT22;2225;53.568;13.266;2023-01-01T00:55:01;18.70;84.30
4425;DHT22;2225;53.568;13.266;2023-01-01T00:57:28;18.70;84.00
4425;DHT22;2225;53.568;13.266;2023-01-01T00:59:55;18.70;84.40
4425;DHT22;2225;53.568;13.266;2023-01-01T01:02:22;18.80;84.50
4425;DHT22;2225;53.568;13.266;2023-01-01T01:04:50;18.80;83.80
4425;DHT22;2225;53.568;13.266;2023-01-01T01:07:16;18.80;83.40
4425;DHT22;2225;53.568;13.266;2023-01-01T01:09:43;18.70;83.50
4425;DHT22;2225;53.568;13.266;2023-01-01T01:12:11;18.70;83.50
4425;DHT22;2225;53.568;13.266;2023-01-01T01:14:44;18.70;83.50
4425;DHT22;2225;53.568;13.266;2023-01-01T01:17:12;18.70;84.00
4425;DHT22;2225;53.568;13.266;2023-01-01T01:19:39;18.70;83.40
4425;DHT22;2225;53.568;13.266;2023-01-01T01:22:05;18.60;83.00
4425;DHT22;2225;53.568;13.266;2023-01-01T01:24:32;18.60;83.60
4425;DHT22;2225;53.568;13.266;2023-01-01T01:26:59;18.60;83.50
4425;DHT22;2225;53.568;13.266;2023-01-01T01:29:26;18.60;83.10
4425;DHT22;2225;53.568;13.266;2023-01-01T01:31:53;18.60;83.40
4425;DHT22;2225;53.568;13.266;2023-01-01T01:34:20;18.60;83.10
4425;DHT22;2225;53.568;13.266;2023-01-01T01:36:53;18.60;83.10
4425;DHT22;2225;53.568;13.266;2023-01-01T01:39:21;18.60;83.30
4425;DHT22;2225;53.568;13.266;2023-01-01T01:41:48;18.60;83.30
4425;DHT22;2225;53.568;13.266;2023-01-01T01:44:51;18.60;83.20
4425;DHT22;2225;53.568;13.266;2023-01-01T01:47:35;18.70;83.10
4425;DHT22;2225;53.568;13.266;2023-01-01T01:55:38;18.60;82.80
4425;DHT22;2225;53.568;13.266;2023-01-01T01:58:09;18.60;83.00
4425;DHT22;2225;53.568;13.266;2023-01-01T02:00:37;18.60;82.50
4425;DHT22;2225;53.568;13.266;2023-01-01T02:03:19;18.60;82.40
4425;DHT22;2225;53.568;13.266;2023-01-01T02:05:49;18.50;82.60
4425;DHT22;2225;53.568;13.266;2023-01-01T02:08:18;18.50;82.80
4425;DHT22;2225;53.568;13.266;2023-01-01T02:10:46;18.50;83.00
4425;DHT22;2225;53.568;13.266;2023-01-01T02:13:14;18.50;82.50
4425;DHT22;2225;53.568;13.266;2023-01-01T02:15:51;18.50;82.20
4425;DHT22;2225;53.568;13.266;2023-01-01T02:18:24;18.50;82.20
4425;DHT22;2225;53.568;13.266;2023-01-01T02:20:59;18.50;82.30
4425;DHT22;2225;53.568;13.266;2023-01-01T02:31:58;18.60;81.80
4425;DHT22;2225;53.568;13.266;2023-01-01T02:34:34;18.60;82.10
4425;DHT22;2225;53.568;13.266;2023-01-01T02:37:08;18.60;81.60
4425;DHT22;2225;53.568;13.266;2023-01-01T02:39:45;18.60;82.00
4425;DHT22;2225;53.568;13.266;2023-01-01T02:42:16;18.60;81.60
4425;DHT22;2225;53.568;13.266;2023-01-01T02:44:44;18.60;81.50
4425;DHT22;2225;53.568;13.266;2023-01-01T02:47:16;18.60;81.40
4425;DHT22;2225;53.568;13.266;2023-01-01T02:49:57;18.60;81.50
4425;DHT22;2225;53.568;13.266;2023-01-01T02:52:45;18.60;81.30
4425;DHT22;2225;53.568;13.266;2023-01-01T02:55:51;18.60;81.50
4425;DHT22;2225;53.568;13.266;2023-01-01T02:58:42;18.60;81.10
4425;DHT22;2225;53.568;13.266;2023-01-01T03:01:47;18.60;81.50
4425;DHT22;2225;53.568;13.266;2023-01-01T03:04:39;18.60;80.80
4425;DHT22;2225;53.568;13.266;2023-01-01T03:07:26;18.60;80.90
4425;DHT22;2225;53.568;13.266;2023-01-01T03:10:42;18.60;80.70
4425;DHT22;2225;53.568;13.266;2023-01-01T03:16:01;18.70;80.70
4425;DHT22;2225;53.568;13.266;2023-01-01T03:18:38;18.70;80.20
4425;DHT22;2225;53.568;13.266;2023-01-01T03:21:42;18.70;80.60
4425;DHT22;2225;53.568;13.266;2023-01-01T03:24:24;18.80;80.50
4425;DHT22;2225;53.568;13.266;2023-01-01T03:27:27;18.80;79.80
4425;DHT22;2225;53.568;13.266;2023-01-01T03:30:01;18.80;80.10
4425;DHT22;2225;53.568;13.266;2023-01-01T03:32:47;18.90;79.70
4425;DHT22;2225;53.568;13.266;2023-01-01T03:35:32;18.90;79.50
4425;DHT22;2225;53.568;13.266;2023-01-01T03:38:08;18.90;79.20
4425;DHT22;2225;53.568;13.266;2023-01-01T03:40:39;19.00;79.30
4425;DHT22;2225;53.568;13.266;2023-01-01T03:43:13;19.00;79.10
4425;DHT22;2225;53.568;13.266;2023-01-01T03:45:45;19.00;78.90
4425;DHT22;2225;53.568;13.266;2023-01-01T03:48:15;19.00;79.00
4425;DHT22;2225;53.568;13.266;2023-01-01T03:51:04;19.00;79.40
4425;DHT22;2225;53.568;13.266;2023-01-01T03:53:39;19.00;79.50
4425;DHT22;2225;53.568;13.266;2023-01-01T03:56:15;19.00;78.90
4425;DHT22;2225;53.568;13.266;2023-01-01T03:58:59;19.00;78.90
4425;DHT22;2225;53.568;13.266;2023-01-01T04:01:36;19.00;79.80
4425;DHT22;2225;53.568;13.266;2023-01-01T04:04:06;18.90;78.60
4425;DHT22;2225;53.568;13.266;2023-01-01T04:06:33;18.90;78.70
4425;DHT22;2225;53.568;13.266;2023-01-01T04:09:02;18.90;78.90
4425;DHT22;2225;53.568;13.266;2023-01-01T04:11:31;18.80;79.20
4425;DHT22;2225;53.568;13.266;2023-01-01T04:14:40;18.80;79.40
4425;DHT22;2225;53.568;13.266;2023-01-01T04:17:09;18.90;79.30
4425;DHT22;2225;53.568;13.266;2023-01-01T04:19:37;18.80;79.60
4425;DHT22;2225;53.568;13.266;2023-01-01T04:22:04;18.80;79.20
4425;DHT22;2225;53.568;13.266;2023-01-01T04:24:32;18.80;79.50
4425;DHT22;2225;53.568;13.266;2023-01-01T04:26:59;18.80;79.50
4425;DHT22;2225;53.568;13.266;2023-01-01T04:29:26;18.90;79.60
4425;DHT22;2225;53.568;13.266;2023-01-01T04:31:53;18.80;79.20
4425;DHT22;2225;53.568;13.266;2023-01-01T04:34:20;18.80;79.80
4425;DHT22;2225;53.568;13.266;2023-01-01T04:36:46;18.80;79.40
4425;DHT22;2225;53.568;13.266;2023-01-01T04:39:13;18.80;79.30
4425;DHT22;2225;53.568;13.266;2023-01-01T04:41:40;18.80;79.30
4425;DHT22;2225;53.568;13.266;2023-01-01T04:44:07;18.80;79.20
4425;DHT22;2225;53.568;13.266;2023-01-01T04:46:34;18.70;79.10
4425;DHT22;2225;53.568;13.266;2023-01-01T04:49:01;18.70;79.50
4425;DHT22;2225;53.568;13.266;2023-01-01T04:51:28;18.70;79.60
4425;DHT22;2225;53.568;13.266;2023-01-01T04:53:55;18.80;79.40
4425;DHT22;2225;53.568;13.266;2023-01-01T04:56:22;18.80;79.30
4425;DHT22;2225;53.568;13.266;2023-01-01T04:58:49;18.80;79.20
4425;DHT22;2225;53.568;13.266;2023-01-01T05:01:22;18.80;79.30
4425;DHT22;2225;53.568;13.266;2023-01-01T05:03:51;18.80;79.10
4425;DHT22;2225;53.568;13.266;2023-01-01T05:06:19;18.80;79.40
4425;DHT22;2225;53.568;13.266;2023-01-01T05:08:47;18.70;79.30
4425;DHT22;2225;53.568;13.266;2023-01-01T05:11:18;18.70;79.70
4425;DHT22;2225;53.568;13.266;2023-01-01T05:13:48;18.70;79.40
4425;DHT22;2225;53.568;13.266;2023-01-01T05:16:22;18.70;79.40
4425;DHT22;2225;53.568;13.266;2023-01-01T05:18:51;18.70;79.50
4425;DHT22;2225;53.568;13.266;2023-01-01T05:21:23;18.70;79.20
4425;DHT22;2225;53.568;13.266;2023-01-01T05:23:56;18.70;79.30
4425;DHT22;2225;53.568;13.266;2023-01-01T05:26:27;18.80;79.10
4425;DHT22;2225;53.568;13.266;2023-01-01T05:28:56;18.70;79.10
4425;DHT22;2225;53.568;13.266;2023-01-01T05:31:25;18.70;79.40
4425;DHT22;2225;53.568;13.266;2023-01-01T05:33:55;18.70;79.60
4425;DHT22;2225;53.568;13.266;2023-01-01T05:36:25;18.80;79.40
4425;DHT22;2225;53.568;13.266;2023-01-01T05:38:53;18.70;78.80
4425;DHT22;2225;53.568;13.266;2023-01-01T05:41:21;18.80;79.40
4425;DHT22;2225;53.568;13.266;2023-01-01T05:43:49;18.80;79.20
4425;DHT22;2225;53.568;13.266;2023-01-01T05:46:18;18.80;79.40
4425;DHT22;2225;53.568;13.266;2023-01-01T05:48:47;18.80;79.20
4425;DHT22;2225;53.568;13.266;2023-01-01T05:51:23;18.90;78.90
4425;DHT22;2225;53.568;13.266;2023-01-01T05:53:55;18.90;79.50
4425;DHT22;2225;53.568;13.266;2023-01-01T05:56:24;18.90;78.90
4425;DHT22;2225;53.568;13.266;2023-01-01T05:58:51;18.90;78.80
4425;DHT22;2225;53.568;13.266;2023-01-01T06:01:29;18.90;78.60
4425;DHT22;2225;53.568;13.266;2023-01-01T06:03:58;18.90;77.90
4425;DHT22;2225;53.568;13.266;2023-01-01T06:06:30;18.80;78.50
4425;DHT22;2225;53.568;13.266;2023-01-01T06:09:01;18.80;78.40
4425;DHT22;2225;53.568;13.266;2023-01-01T06:11:30;18.80;78.80
4425;DHT22;2225;53.568;13.266;2023-01-01T06:13:59;18.80;78.20
4425;DHT22;2225;53.568;13.266;2023-01-01T06:16:27;18.80;78.40
4425;DHT22;2225;53.568;13.266;2023-01-01T06:18:55;18.70;78.10
4425;DHT22;2225;53.568;13.266;2023-01-01T06:21:27;18.70;78.10
4425;DHT22;2225;53.568;13.266;2023-01-01T06:23:56;18.60;78.30
4425;DHT22;2225;53.568;13.266;2023-01-01T06:26:32;18.60;78.00
4425;DHT22;2225;53.568;13.266;2023-01-01T06:29:00;18.60;78.00
4425;DHT22;2225;53.568;13.266;2023-01-01T06:31:29;18.50;78.00
4425;DHT22;2225;53.568;13.266;2023-01-01T06:34:04;18.50;78.10
4425;DHT22;2225;53.568;13.266;2023-01-01T06:36:30;18.40;78.00
4425;DHT22;2225;53.568;13.266;2023-01-01T06:38:57;18.30;78.00
4425;DHT22;2225;53.568;13.266;2023-01-01T06:41:26;18.30;78.00
4425;DHT22;2225;53.568;13.266;2023-01-01T06:43:58;18.20;78.00
4425;DHT22;2225;53.568;13.266;2023-01-01T06:46:31;18.20;77.80
4425;DHT22;2225;53.568;13.266;2023-01-01T06:49:05;18.10;78.00
4425;DHT22;2225;53.568;13.266;2023-01-01T06:51:40;18.00;78.10
4425;DHT22;2225;53.568;13.266;2023-01-01T06:54:09;18.00;78.40
4425;DHT22;2225;53.568;13.266;2023-01-01T06:56:37;18.00;78.00
4425;DHT22;2225;53.568;13.266;2023-01-01T06:59:04;17.90;78.20
4425;DHT22;2225;53.568;13.266;2023-01-01T07:01:33;17.90;78.20
4425;DHT22;2225;53.568;13.266;2023-01-01T07:04:05;17.90;78.00
4425;DHT22;2225;53.568;13.266;2023-01-01T07:06:34;17.90;78.00
4425;DHT22;2225;53.568;13.266;2023-01-01T07:09:02;17.80;78.10
4425;DHT22;2225;53.568;13.266;2023-01-01T07:11:30;17.80;78.10
4425;DHT22;2225;53.568;13.266;2023-01-01T07:13:57;17.80;77.80
4425;DHT22;2225;53.568;13.266;2023-01-01T07:16:24;17.80;77.80
4425;DHT22;2225;53.568;13.266;2023-01-01T07:18:51;17.80;78.20
4425;DHT22;2225;53.568;13.266;2023-01-01T07:21:33;17.90;78.20
4425;DHT22;2225;53.568;13.266;2023-01-01T07:24:18;17.90;78.20
4425;DHT22;2225;53.568;13.266;2023-01-01T07:26:46;18.00;77.50
4425;DHT22;2225;53.568;13.266;2023-01-01T07:29:14;18.00;77.80
4425;DHT22;2225;53.568;13.266;2023-01-01T07:31:42;17.90;76.90
4425;DHT22;2225;53.568;13.266;2023-01-01T07:34:16;17.90;77.20
4425;DHT22;2225;53.568;13.266;2023-01-01T07:36:48;17.90;77.20
4425;DHT22;2225;53.568;13.266;2023-01-01T07:39:16;18.00;77.60
4425;DHT22;2225;53.568;13.266;2023-01-01T07:41:43;18.00;77.10
4425;DHT22;2225;53.568;13.266;2023-01-01T07:44:12;18.00;76.70
4425;DHT22;2225;53.568;13.266;2023-01-01T07:46:39;18.00;76.80
4425;DHT22;2225;53.568;13.266;2023-01-01T07:49:06;18.00;76.80
4425;DHT22;2225;53.568;13.266;2023-01-01T07:51:33;18.10;76.60
4425;DHT22;2225;53.568;13.266;2023-01-01T07:53:59;18.10;76.60
4425;DHT22;2225;53.568;13.266;2023-01-01T07:56:33;18.20;76.20
4425;DHT22;2225;53.568;13.266;2023-01-01T07:59:01;18.20;76.00
4425;DHT22;2225;53.568;13.266;2023-01-01T08:01:28;18.20;76.40
4425;DHT22;2225;53.568;13.266;2023-01-01T08:03:55;18.20;76.10
4425;DHT22;2225;53.568;13.266;2023-01-01T08:06:22;18.20;75.90
4425;DHT22;2225;53.568;13.266;2023-01-01T08:08:48;18.20;75.50
4425;DHT22;2225;53.568;13.266;2023-01-01T08:11:16;18.20;75.60
4425;DHT22;2225;53.568;13.266;2023-01-01T08:13:42;18.30;75.80
4425;DHT22;2225;53.568;13.266;2023-01-01T08:16:09;18.30;75.50
4425;DHT22;2225;53.568;13.266;2023-01-01T08:18:36;18.30;75.70
4425;DHT22;2225;53.568;13.266;2023-01-01T08:21:04;18.30;75.30
4425;DHT22;2225;53.568;13.266;2023-01-01T08:23:31;18.30;75.30
4425;DHT22;2225;53.568;13.266;2023-01-01T08:25:59;18.30;75.10
4425;DHT22;2225;53.568;13.266;2023-01-01T08:28:28;18.40;75.50
4425;DHT22;2225;53.568;13.266;2023-01-01T08:30:56;18.40;75.10
4425;DHT22;2225;53.568;13.266;2023-01-01T08:33:23;18.40;74.70
4425;DHT22;2225;53.568;13.266;2023-01-01T08:35:51;18.40;74.30
4425;DHT22;2225;53.568;13.266;2023-01-01T08:38:20;18.40;74.30
4425;DHT22;2225;53.568;13.266;2023-01-01T08:40:47;18.50;74.70
4425;DHT22;2225;53.568;13.266;2023-01-01T08:43:14;18.50;73.90
4425;DHT22;2225;53.568;13.266;2023-01-01T08:45:41;18.50;74.20
4425;DHT22;2225;53.568;13.266;2023-01-01T08:48:08;18.50;74.50
4425;DHT22;2225;53.568;13.266;2023-01-01T08:50:36;18.40;74.30
4425;DHT22;2225;53.568;13.266;2023-01-01T08:53:03;18.50;74.30
4425;DHT22;2225;53.568;13.266;2023-01-01T08:55:30;18.50;74.10
4425;DHT22;2225;53.568;13.266;2023-01-01T08:57:57;18.50;74.40
4425;DHT22;2225;53.568;13.266;2023-01-01T09:00:24;18.50;74.40
4425;DHT22;2225;53.568;13.266;2023-01-01T09:02:50;18.50;74.50
4425;DHT22;2225;53.568;13.266;2023-01-01T09:05:18;18.50;75.00
4425;DHT22;2225;53.568;13.266;2023-01-01T09:07:45;18.60;74.70
4425;DHT22;2225;53.568;13.266;2023-01-01T09:10:12;18.60;74.20
4425;DHT22;2225;53.568;13.266;2023-01-01T09:12:39;18.60;74.10
4425;DHT22;2225;53.568;13.266;2023-01-01T09:15:09;18.60;74.30
4425;DHT22;2225;53.568;13.266;2023-01-01T09:17:40;18.60;74.00
4425;DHT22;2225;53.568;13.266;2023-01-01T09:20:07;18.60;74.10
4425;DHT22;2225;53.568;13.266;2023-01-01T09:22:34;18.60;74.20
4425;DHT22;2225;53.568;13.266;2023-01-01T09:25:01;18.60;74.10
4425;DHT22;2225;53.568;13.266;2023-01-01T09:27:28;18.70;74.30
4425;DHT22;2225;53.568;13.266;2023-01-01T09:29:55;18.70;74.10
4425;DHT22;2225;53.568;13.266;2023-01-01T09:32:22;18.70;74.00
4425;DHT22;2225;53.568;13.266;2023-01-01T09:34:49;18.70;74.30
4425;DHT22;2225;53.568;13.266;2023-01-01T09:37:18;18.70;73.60
4425;DHT22;2225;53.568;13.266;2023-01-01T09:39:45;18.70;73.70
4425;DHT22;2225;53.568;13.266;2023-01-01T09:45:22;18.70;74.00
4425;DHT22;2225;53.568;13.266;2023-01-01T09:47:56;18.70;73.60
4425;DHT22;2225;53.568;13.266;2023-01-01T09:50:35;18.60;73.90
4425;DHT22;2225;53.568;13.266;2023-01-01T09:56:03;18.50;74.10
4425;DHT22;2225;53.568;13.266;2023-01-01T09:58:33;18.50;74.40
4425;DHT22;2225;53.568;13.266;2023-01-01T10:01:12;18.50;74.40
4425;DHT22;2225;53.568;13.266;2023-01-01T10:04:13;18.50;74.80
4425;DHT22;2225;53.568;13.266;2023-01-01T10:15:26;18.50;74.90
4425;DHT22;2225;53.568;13.266;2023-01-01T10:17:58;18.50;74.90
4425;DHT22;2225;53.568;13.266;2023-01-01T10:23:40;18.60;74.50
4425;DHT22;2225;53.568;13.266;2023-01-01T10:26:16;18.60;74.20
4425;DHT22;2225;53.568;13.266;2023-01-01T10:28:59;18.50;74.20
4425;DHT22;2225;53.568;13.266;2023-01-01T10:31:34;18.50;73.90
4425;DHT22;2225;53.568;13.266;2023-01-01T10:34:14;18.60;74.30
4425;DHT22;2225;53.568;13.266;2023-01-01T10:36:43;18.60;74.20
4425;DHT22;2225;53.568;13.266;2023-01-01T10:39:14;18.60;74.10
4425;DHT22;2225;53.568;13.266;2023-01-01T10:41:45;18.60;74.30
4425;DHT22;2225;53.568;13.266;2023-01-01T10:44:15;18.60;74.10
4425;DHT22;2225;53.568;13.266;2023-01-01T10:46:47;18.70;74.90
4425;DHT22;2225;53.568;13.266;2023-01-01T10:49:16;18.60;74.00
4425;DHT22;2225;53.568;13.266;2023-01-01T10:51:48;18.60;74.10
4425;DHT22;2225;53.568;13.266;2023-01-01T10:57:18;18.60;74.30
4425;DHT22;2225;53.568;13.266;2023-01-01T10:59:46;18.70;74.50
4425;DHT22;2225;53.568;13.266;2023-01-01T11:04:51;18.70;75.40
4425;DHT22;2225;53.568;13.266;2023-01-01T11:07:30;18.70;74.10
4425;DHT22;2225;53.568;13.266;2023-01-01T11:10:02;18.80;74.30
4425;DHT22;2225;53.568;13.266;2023-01-01T11:12:34;18.70;74.00
4425;DHT22;2225;53.568;13.266;2023-01-01T11:15:36;18.80;73.90
4425;DHT22;2225;53.568;13.266;2023-01-01T11:18:06;18.80;74.20
4425;DHT22;2225;53.568;13.266;2023-01-01T11:20:38;18.80;74.20
4425;DHT22;2225;53.568;13.266;2023-01-01T11:26:02;18.90;74.30
4425;DHT22;2225;53.568;13.266;2023-01-01T11:28:32;18.90;73.90
4425;DHT22;2225;53.568;13.266;2023-01-01T11:31:12;18.90;73.50
4425;DHT22;2225;53.568;13.266;2023-01-01T11:33:53;18.90;73.70
4425;DHT22;2225;53.568;13.266;2023-01-01T11:36:27;18.90;73.70
4425;DHT22;2225;53.568;13.266;2023-01-01T11:39:12;18.90;73.10
4425;DHT22;2225;53.568;13.266;2023-01-01T11:41:50;18.90;73.10
4425;DHT22;2225;53.568;13.266;2023-01-01T11:44:45;18.90;74.00
4425;DHT22;2225;53.568;13.266;2023-01-01T11:47:33;18.80;73.00
4425;DHT22;2225;53.568;13.266;2023-01-01T11:50:12;18.80;73.00
4425;DHT22;2225;53.568;13.266;2023-01-01T11:52:47;18.80;73.40
4425;DHT22;2225;53.568;13.266;2023-01-01T11:55:42;18.80;73.10
4425;DHT22;2225;53.568;13.266;2023-01-01T11:58:18;18.80;73.20
4425;DHT22;2225;53.568;13.266;2023-01-01T12:01:01;18.80;72.90
4425;DHT22;2225;53.568;13.266;2023-01-01T12:03:53;18.80;72.60
4425;DHT22;2225;53.568;13.266;2023-01-01T12:06:29;18.80;72.90
4425;DHT22;2225;53.568;13.266;2023-01-01T12:09:49;18.80;73.20
4425;DHT22;2225;53.568;13.266;2023-01-01T12:12:30;18.80;73.30
4425;DHT22;2225;53.568;13.266;2023-01-01T12:15:24;18.80;73.20
4425;DHT22;2225;53.568;13.266;2023-01-01T12:18:05;18.80;73.50
4425;DHT22;2225;53.568;13.266;2023-01-01T12:21:04;18.80;73.30
4425;DHT22;2225;53.568;13.266;2023-01-01T12:23:34;18.80;73.50
4425;DHT22;2225;53.568;13.266;2023-01-01T12:26:12;18.80;73.40
4425;DHT22;2225;53.568;13.266;2023-01-01T12:31:50;18.70;73.60
4425;DHT22;2225;53.568;13.266;2023-01-01T12:34:50;18.60;73.30
4425;DHT22;2225;53.568;13.266;2023-01-01T12:43:35;18.60;73.80
4425;DHT22;2225;53.568;13.266;2023-01-01T12:46:35;18.50;73.70
4425;DHT22;2225;53.568;13.266;2023-01-01T12:52:40;18.50;73.80
4425;DHT22;2225;53.568;13.266;2023-01-01T12:55:35;18.50;73.90
4425;DHT22;2225;53.568;13.266;2023-01-01T13:01:19;18.50;74.50
4425;DHT22;2225;53.568;13.266;2023-01-01T13:03:51;18.50;74.30
4425;DHT22;2225;53.568;13.266;2023-01-01T13:06:33;18.50;74.60
4425;DHT22;2225;53.568;13.266;2023-01-01T13:09:12;18.50;74.50
4425;DHT22;2225;53.568;13.266;2023-01-01T13:11:42;18.50;74.70
4425;DHT22;2225;53.568;13.266;2023-01-01T13:14:11;18.40;74.80
4425;DHT22;2225;53.568;13.266;2023-01-01T13:16:40;18.40;74.80
4425;DHT22;2225;53.568;13.266;2023-01-01T13:19:31;18.40;75.00
4425;DHT22;2225;53.568;13.266;2023-01-01T13:38:56;18.10;74.80
4425;DHT22;2225;53.568;13.266;2023-01-01T13:41:40;18.00;74.70
4425;DHT22;2225;53.568;13.266;2023-01-01T13:44:10;18.00;74.80
4425;DHT22;2225;53.568;13.266;2023-01-01T13:52:45;17.80;74.90
4425;DHT22;2225;53.568;13.266;2023-01-01T13:55:45;17.80;75.00
4425;DHT22;2225;53.568;13.266;2023-01-01T13:58:35;17.70;75.00
4425;DHT22;2225;53.568;13.266;2023-01-01T14:03:44;17.60;75.30
4425;DHT22;2225;53.568;13.266;2023-01-01T14:06:27;17.60;75.40
4425;DHT22;2225;53.568;13.266;2023-01-01T14:09:13;17.50;75.60
4425;DHT22;2225;53.568;13.266;2023-01-01T14:11:42;17.50;75.60
4425;DHT22;2225;53.568;13.266;2023-01-01T14:16:51;17.50;76.20
4425;DHT22;2225;53.568;13.266;2023-01-01T14:19:19;17.40;76.10
4425;DHT22;2225;53.568;13.266;2023-01-01T14:21:46;17.40;76.30
4425;DHT22;2225;53.568;13.266;2023-01-01T14:24:15;17.40;76.40
4425;DHT22;2225;53.568;13.266;2023-01-01T14:26:43;17.30;76.50
4425;DHT22;2225;53.568;13.266;2023-01-01T14:29:24;17.20;76.50
4425;DHT22;2225;53.568;13.266;2023-01-01T14:31:53;17.20;76.70
4425;DHT22;2225;53.568;13.266;2023-01-01T14:34:29;17.20;76.80
4425;DHT22;2225;53.568;13.266;2023-01-01T14:37:03;17.20;76.90
4425;DHT22;2225;53.568;13.266;2023-01-01T14:39:34;17.20;77.00
4425;DHT22;2225;53.568;13.266;2023-01-01T14:42:14;17.20;77.10
4425;DHT22;2225;53.568;13.266;2023-01-01T14:44:47;17.10;77.20
4425;DHT22;2225;53.568;13.266;2023-01-01T14:47:25;17.10;77.40
4425;DHT22;2225;53.568;13.266;2023-01-01T14:50:01;17.10;77.80
4425;DHT22;2225;53.568;13.266;2023-01-01T14:52:30;17.00;77.90
4425;DHT22;2225;53.568;13.266;2023-01-01T14:54:59;17.00;78.00
4425;DHT22;2225;53.568;13.266;2023-01-01T14:57:32;17.00;78.20
4425;DHT22;2225;53.568;13.266;2023-01-01T15:00:13;17.00;78.40
4425;DHT22;2225;53.568;13.266;2023-01-01T15:02:45;16.90;78.40
4425;DHT22;2225;53.568;13.266;2023-01-01T15:07:59;16.80;78.60
4425;DHT22;2225;53.568;13.266;2023-01-01T15:10:29;16.80;78.80
4425;DHT22;2225;53.568;13.266;2023-01-01T15:12:57;16.80;78.80
4425;DHT22;2225;53.568;13.266;2023-01-01T15:15:39;16.80;79.00
4425;DHT22;2225;53.568;13.266;2023-01-01T15:18:36;16.70;79.00
4425;DHT22;2225;53.568;13.266;2023-01-01T15:21:38;16.70;79.10
4425;DHT22;2225;53.568;13.266;2023-01-01T15:24:09;16.70;79.40
4425;DHT22;2225;53.568;13.266;2023-01-01T15:26:50;16.60;79.30
4425;DHT22;2225;53.568;13.266;2023-01-01T15:29:27;16.60;79.60
4425;DHT22;2225;53.568;13.266;2023-01-01T15:32:10;16.60;79.80
4425;DHT22;2225;53.568;13.266;2023-01-01T15:34:59;16.60;79.90
4425;DHT22;2225;53.568;13.266;2023-01-01T15:37:42;16.50;80.00
4425;DHT22;2225;53.568;13.266;2023-01-01T15:42:43;16.40;80.10
4425;DHT22;2225;53.568;13.266;2023-01-01T15:45:35;16.40;80.30
4425;DHT22;2225;53.568;13.266;2023-01-01T15:48:27;16.30;81.20
4425;DHT22;2225;53.568;13.266;2023-01-01T15:51:11;16.30;80.50
4425;DHT22;2225;53.568;13.266;2023-01-01T15:53:50;16.30;80.60
4425;DHT22;2225;53.568;13.266;2023-01-01T15:56:23;16.20;80.60
4425;DHT22;2225;53.568;13.266;2023-01-01T15:58:59;16.20;80.70
4425;DHT22;2225;53.568;13.266;2023-01-01T16:01:37;16.20;81.50
4425;DHT22;2225;53.568;13.266;2023-01-01T16:04:22;16.10;80.90
4425;DHT22;2225;53.568;13.266;2023-01-01T16:06:56;16.10;81.20
4425;DHT22;2225;53.568;13.266;2023-01-01T16:09:24;16.00;81.40
4425;DHT22;2225;53.568;13.266;2023-01-01T16:11:53;16.00;81.30
4425;DHT22;2225;53.568;13.266;2023-01-01T16:14:21;16.00;81.30
4425;DHT22;2225;53.568;13.266;2023-01-01T16:16:52;16.00;81.40
4425;DHT22;2225;53.568;13.266;2023-01-01T16:19:23;15.90;81.40
4425;DHT22;2225;53.568;13.266;2023-01-01T16:21:50;15.90;81.40
4425;DHT22;2225;53.568;13.266;2023-01-01T16:24:18;15.90;81.40
4425;DHT22;2225;53.568;13.266;2023-01-01T16:26:46;15.90;81.70
4425;DHT22;2225;53.568;13.266;2023-01-01T16:29:13;15.90;81.70
4425;DHT22;2225;53.568;13.266;2023-01-01T16:31:41;15.90;81.80
4425;DHT22;2225;53.568;13.266;2023-01-01T16:34:14;15.80;82.00
4425;DHT22;2225;53.568;13.266;2023-01-01T16:36:42;15.80;82.00
4425;DHT22;2225;53.568;13.266;2023-01-01T16:39:10;15.80;82.30
4425;DHT22;2225;53.568;13.266;2023-01-01T16:41:41;15.80;82.40
4425;DHT22;2225;53.568;13.266;2023-01-01T16:44:14;15.70;82.60
4425;DHT22;2225;53.568;13.266;2023-01-01T16:46:41;15.70;82.60
4425;DHT22;2225;53.568;13.266;2023-01-01T16:49:08;15.70;82.70
4425;DHT22;2225;53.568;13.266;2023-01-01T16:51:35;15.70;82.80
4425;DHT22;2225;53.568;13.266;2023-01-01T16:54:08;15.70;82.90
4425;DHT22;2225;53.568;13.266;2023-01-01T16:56:36;15.60;83.10
4425;DHT22;2225;53.568;13.266;2023-01-01T16:59:03;15.60;83.00
4425;DHT22;2225;53.568;13.266;2023-01-01T17:01:30;15.60;83.20
4425;DHT22;2225;53.568;13.266;2023-01-01T17:03:57;15.60;83.50
4425;DHT22;2225;53.568;13.266;2023-01-01T17:06:25;15.60;83.60
4425;DHT22;2225;53.568;13.266;2023-01-01T17:08:52;15.60;83.70
4425;DHT22;2225;53.568;13.266;2023-01-01T17:11:19;15.60;83.70
4425;DHT22;2225;53.568;13.266;2023-01-01T17:13:47;15.60;83.70
4425;DHT22;2225;53.568;13.266;2023-01-01T17:16:15;15.60;83.80
4425;DHT22;2225;53.568;13.266;2023-01-01T17:18:53;15.60;84.00
4425;DHT22;2225;53.568;13.266;2023-01-01T17:21:40;15.60;84.20
4425;DHT22;2225;53.568;13.266;2023-01-01T17:24:07;15.60;84.30
4425;DHT22;2225;53.568;13.266;2023-01-01T17:26:34;15.60;84.60
4425;DHT22;2225;53.568;13.266;2023-01-01T17:29:01;15.60;84.90
4425;DHT22;2225;53.568;13.266;2023-01-01T17:31:29;15.60;85.10
4425;DHT22;2225;53.568;13.266;2023-01-01T17:33:56;15.60;85.20
4425;DHT22;2225;53.568;13.266;2023-01-01T17:36:23;15.60;85.40
4425;DHT22;2225;53.568;13.266;2023-01-01T17:38:53;15.60;85.50
4425;DHT22;2225;53.568;13.266;2023-01-01T17:41:21;15.60;85.70
4425;DHT22;2225;53.568;13.266;2023-01-01T17:43:50;15.60;86.50
4425;DHT22;2225;53.568;13.266;2023-01-01T17:46:21;15.40;87.10
4425;DHT22;2225;53.568;13.266;2023-01-01T17:48:51;15.60;87.40
4425;DHT22;2225;53.568;13.266;2023-01-01T17:51:18;15.60;87.90
4425;DHT22;2225;53.568;13.266;2023-01-01T17:53:45;15.60;88.30
4425;DHT22;2225;53.568;13.266;2023-01-01T17:56:14;15.60;88.30